sensor_id;sensor_type;location;lat;lon;timestamp;temperature;humidity
27797;DHT22;15177;50.844;4.412;2023-11-19T00:02:22;14.40;99.90
27797;DHT22;15177;50.844;4.412;2023-11-19T00:04:49;14.30;99.90
27797;DHT22;15177;50.844;4.412;2023-11-19T00:07:17;14.30;99.90
27797;DHT22;15177;50.844;4.412;2023-11-19T00:09:45;14.30;99.90
27797;DHT22;15177;50.844;4.412;2023-11-19T00:12:11;14.30;99.90
27797;DHT22;15177;50.844;4.412;2023-11-19T00:14:38;14.30;99.90
27797;DHT22;15177;50.844;4.412;2023-11-19T00:17:04;14.40;99.90
27797;DHT22;15177;50.844;4.412;2023-11-19T00:19:29;14.40;99.90
27797;DHT22;15177;50.844;4.412;2023-11-19T00:21:57;14.40;99.90
27797;DHT22;15177;50.844;4.412;2023-11-19T00:24:27;14.40;99.90
27797;DHT22;15177;50.844;4.412;2023-11-19T00:26:53;14.30;99.90
27797;DHT22;15177;50.844;4.412;2023-11-19T00:29:19;14.40;99.90
27797;DHT22;15177;50.844;4.412;2023-11-19T00:31:45;14.40;99.90
27797;DHT22;15177;50.844;4.412;2023-11-19T00:34:13;14.40;99.90
27797;DHT22;15177;50.844;4.412;2023-11-19T00:36:39;14.30;99.90
27797;DHT22;15177;50.844;4.412;2023-11-19T00:39:09;14.40;99.90
27797;DHT22;15177;50.844;4.412;2023-11-19T00:41:35;14.40;99.90
27797;DHT22;15177;50.844;4.412;2023-11-19T00:44:05;14.40;99.90
27797;DHT22;15177;50.844;4.412;2023-11-19T00:46:33;14.30;99.90
27797;DHT22;15177;50.844;4.412;2023-11-19T00:48:59;14.30;99.90
27797;DHT22;15177;50.844;4.412;2023-11-19T00:51:26;14.30;99.90
27797;DHT22;15177;50.844;4.412;2023-11-19T00:53:52;14.30;99.90
27797;DHT22;15177;50.844;4.412;2023-11-19T00:56:20;14.30;99.90
27797;DHT22;15177;50.844;4.412;2023-11-19T00:58:46;14.30;99.90
27797;DHT22;15177;50.844;4.412;2023-11-19T01:01:13;14.40;99.90
27797;DHT22;15177;50.844;4.412;2023-11-19T01:03:43;14.40;99.90
27797;DHT22;15177;50.844;4.412;2023-11-19T01:06:08;14.30;99.90
27797;DHT22;15177;50.844;4.412;2023-11-19T01:08:34;14.40;99.90
27797;DHT22;15177;50.844;4.412;2023-11-19T01:11:01;14.40;99.90
27797;DHT22;15177;50.844;4.412;2023-11-19T01:13:29;14.50;99.90
27797;DHT22;15177;50.844;4.412;2023-11-19T01:15:55;14.50;99.90
27797;DHT22;15177;50.844;4.412;2023-11-19T01:18:21;14.40;99.90
27797;DHT22;15177;50.844;4.412;2023-11-19T01:20:50;14.40;99.90
27797;DHT22;15177;50.844;4.412;2023-11-19T01:23:15;14.50;99.90
27797;DHT22;15177;50.844;4.412;2023-11-19T01:25:43;14.50;99.90
27797;DHT22;15177;50.844;4.412;2023-11-19T01:28:08;14.50;99.90
27797;DHT22;15177;50.844;4.412;2023-11-19T01:30:34;14.50;99.90
27797;DHT22;15177;50.844;4.412;2023-11-19T01:33:00;14.50;99.90
27797;DHT22;15177;50.844;4.412;2023-11-19T01:35:30;14.40;99.90
27797;DHT22;15177;50.844;4.412;2023-11-19T01:37:55;14.50;99.90
27797;DHT22;15177;50.844;4.412;2023-11-19T01:40:21;14.50;99.90
27797;DHT22;15177;50.844;4.412;2023-11-19T01:42:49;14.50;99.90
27797;DHT22;15177;50.844;4.412;2023-11-19T01:45:26;14.50;99.90
27797;DHT22;15177;50.844;4.412;2023-11-19T01:47:53;14.40;99.90
27797;DHT22;15177;50.844;4.412;2023-11-19T01:50:19;14.30;99.90
27797;DHT22;15177;50.844;4.412;2023-11-19T01:52:47;14.20;99.90
27797;DHT22;15177;50.844;4.412;2023-11-19T01:55:13;14.20;99.90
27797;DHT22;15177;50.844;4.412;2023-11-19T01:57:39;14.20;99.90
27797;DHT22;15177;50.844;4.412;2023-11-19T02:00:09;14.20;99.90
27797;DHT22;15177;50.844;4.412;2023-11-19T02:02:40;14.20;99.90
27797;DHT22;15177;50.844;4.412;2023-11-19T02:05:06;14.20;99.90
27797;DHT22;15177;50.844;4.412;2023-11-19T02:07:34;14.30;99.90
27797;DHT22;15177;50.844;4.412;2023-11-19T02:10:00;14.30;99.90
27797;DHT22;15177;50.844;4.412;2023-11-19T02:12:32;14.40;99.90
27797;DHT22;15177;50.844;4.412;2023-11-19T02:15:04;14.30;99.90
27797;DHT22;15177;50.844;4.412;2023-11-19T02:17:30;14.30;99.90
27797;DHT22;15177;50.844;4.412;2023-11-19T02:20:00;14.20;99.90
27797;DHT22;15177;50.844;4.412;2023-11-19T02:22:25;14.10;99.90
27797;DHT22;15177;50.844;4.412;2023-11-19T02:24:56;14.00;99.90
27797;DHT22;15177;50.844;4.412;2023-11-19T02:27:37;14.00;99.90
27797;DHT22;15177;50.844;4.412;2023-11-19T02:30:04;13.90;99.90
27797;DHT22;15177;50.844;4.412;2023-11-19T02:32:34;13.90;99.90
27797;DHT22;15177;50.844;4.412;2023-11-19T02:34:59;14.00;99.90
27797;DHT22;15177;50.844;4.412;2023-11-19T02:37:25;14.10;99.90
27797;DHT22;15177;50.844;4.412;2023-11-19T02:39:53;14.00;99.90
27797;DHT22;15177;50.844;4.412;2023-11-19T02:42:19;14.10;99.90
27797;DHT22;15177;50.844;4.412;2023-11-19T02:44:45;14.00;99.90
27797;DHT22;15177;50.844;4.412;2023-11-19T02:47:13;14.00;99.90
27797;DHT22;15177;50.844;4.412;2023-11-19T02:49:39;14.00;99.90
27797;DHT22;15177;50.844;4.412;2023-11-19T02:52:05;14.00;99.90
27797;DHT22;15177;50.844;4.412;2023-11-19T02:54:31;14.00;99.90
27797;DHT22;15177;50.844;4.412;2023-11-19T02:57:00;14.00;99.90
27797;DHT22;15177;50.844;4.412;2023-11-19T02:59:31;14.10;99.90
27797;DHT22;15177;50.844;4.412;2023-11-19T03:02:05;14.10;99.90
27797;DHT22;15177;50.844;4.412;2023-11-19T03:04:33;14.00;99.90
27797;DHT22;15177;50.844;4.412;2023-11-19T03:06:58;13.90;99.90
27797;DHT22;15177;50.844;4.412;2023-11-19T03:09:24;13.90;99.90
27797;DHT22;15177;50.844;4.412;2023-11-19T03:11:50;13.80;99.90
27797;DHT22;15177;50.844;4.412;2023-11-19T03:14:18;13.70;99.90
27797;DHT22;15177;50.844;4.412;2023-11-19T03:16:46;13.70;99.90
27797;DHT22;15177;50.844;4.412;2023-11-19T03:19:12;13.60;99.90
27797;DHT22;15177;50.844;4.412;2023-11-19T03:21:37;13.60;99.90
27797;DHT22;15177;50.844;4.412;2023-11-19T03:24:03;13.60;99.90
27797;DHT22;15177;50.844;4.412;2023-11-19T03:26:29;13.60;99.90
27797;DHT22;15177;50.844;4.412;2023-11-19T03:28:57;13.60;99.90
27797;DHT22;15177;50.844;4.412;2023-11-19T03:31:23;13.60;99.90
27797;DHT22;15177;50.844;4.412;2023-11-19T03:33:48;13.60;99.90
27797;DHT22;15177;50.844;4.412;2023-11-19T03:36:14;13.60;99.90
27797;DHT22;15177;50.844;4.412;2023-11-19T03:38:42;13.50;99.90
27797;DHT22;15177;50.844;4.412;2023-11-19T03:41:12;13.40;99.90
27797;DHT22;15177;50.844;4.412;2023-11-19T03:43:41;13.40;99.90
27797;DHT22;15177;50.844;4.412;2023-11-19T03:46:17;13.40;99.90
27797;DHT22;15177;50.844;4.412;2023-11-19T03:48:43;13.40;99.90
27797;DHT22;15177;50.844;4.412;2023-11-19T03:51:11;13.40;99.90
27797;DHT22;15177;50.844;4.412;2023-11-19T03:53:43;13.30;99.90
27797;DHT22;15177;50.844;4.412;2023-11-19T03:56:09;13.20;99.90
27797;DHT22;15177;50.844;4.412;2023-11-19T03:58:38;13.20;99.90
27797;DHT22;15177;50.844;4.412;2023-11-19T04:01:13;13.20;99.90
27797;DHT22;15177;50.844;4.412;2023-11-19T04:03:39;13.20;99.90
27797;DHT22;15177;50.844;4.412;2023-11-19T04:06:05;13.10;99.90
27797;DHT22;15177;50.844;4.412;2023-11-19T04:08:33;13.10;99.90
27797;DHT22;15177;50.844;4.412;2023-11-19T04:11:00;13.10;99.90
27797;DHT22;15177;50.844;4.412;2023-11-19T04:13:28;13.10;99.90
27797;DHT22;15177;50.844;4.412;2023-11-19T04:15:53;13.10;99.90
27797;DHT22;15177;50.844;4.412;2023-11-19T04:18:23;13.10;99.90
27797;DHT22;15177;50.844;4.412;2023-11-19T04:20:49;13.20;99.90
27797;DHT22;15177;50.844;4.412;2023-11-19T04:23:16;13.20;99.90
27797;DHT22;15177;50.844;4.412;2023-11-19T04:25:42;13.20;99.90
27797;DHT22;15177;50.844;4.412;2023-11-19T04:28:07;13.20;99.90
27797;DHT22;15177;50.844;4.412;2023-11-19T04:30:33;13.20;99.90
27797;DHT22;15177;50.844;4.412;2023-11-19T04:33:00;13.20;99.90
27797;DHT22;15177;50.844;4.412;2023-11-19T04:35:26;13.20;99.90
27797;DHT22;15177;50.844;4.412;2023-11-19T04:37:52;13.20;99.90
27797;DHT22;15177;50.844;4.412;2023-11-19T04:40:18;13.10;99.90
27797;DHT22;15177;50.844;4.412;2023-11-19T04:42:43;13.10;99.90
27797;DHT22;15177;50.844;4.412;2023-11-19T04:45:12;13.00;99.90
27797;DHT22;15177;50.844;4.412;2023-11-19T04:47:37;13.10;99.90
27797;DHT22;15177;50.844;4.412;2023-11-19T04:50:03;13.10;99.90
27797;DHT22;15177;50.844;4.412;2023-11-19T04:52:29;13.00;99.90
27797;DHT22;15177;50.844;4.412;2023-11-19T04:54:55;13.10;99.90
27797;DHT22;15177;50.844;4.412;2023-11-19T04:57:20;13.10;99.90
27797;DHT22;15177;50.844;4.412;2023-11-19T04:59:46;13.10;99.90
27797;DHT22;15177;50.844;4.412;2023-11-19T05:02:12;13.20;99.90
27797;DHT22;15177;50.844;4.412;2023-11-19T05:04:42;13.20;99.90
27797;DHT22;15177;50.844;4.412;2023-11-19T05:07:09;13.20;99.90
27797;DHT22;15177;50.844;4.412;2023-11-19T05:09:34;13.20;99.90
27797;DHT22;15177;50.844;4.412;2023-11-19T05:12:00;13.20;99.90
27797;DHT22;15177;50.844;4.412;2023-11-19T05:14:27;13.20;99.90
27797;DHT22;15177;50.844;4.412;2023-11-19T05:16:53;13.10;99.90
27797;DHT22;15177;50.844;4.412;2023-11-19T05:19:21;13.10;99.90
27797;DHT22;15177;50.844;4.412;2023-11-19T05:21:48;13.10;99.90
27797;DHT22;15177;50.844;4.412;2023-11-19T05:24:17;13.10;99.90
27797;DHT22;15177;50.844;4.412;2023-11-19T05:26:43;13.10;99.90
27797;DHT22;15177;50.844;4.412;2023-11-19T05:29:09;13.10;99.90
27797;DHT22;15177;50.844;4.412;2023-11-19T05:31:39;13.00;99.90
27797;DHT22;15177;50.844;4.412;2023-11-19T05:34:09;13.00;99.90
27797;DHT22;15177;50.844;4.412;2023-11-19T05:36:37;13.00;99.90
27797;DHT22;15177;50.844;4.412;2023-11-19T05:39:03;12.90;99.90
27797;DHT22;15177;50.844;4.412;2023-11-19T05:41:31;13.00;99.90
27797;DHT22;15177;50.844;4.412;2023-11-19T05:43:56;13.00;99.90
27797;DHT22;15177;50.844;4.412;2023-11-19T05:46:24;13.00;99.90
27797;DHT22;15177;50.844;4.412;2023-11-19T05:48:52;13.00;99.90
27797;DHT22;15177;50.844;4.412;2023-11-19T05:51:18;13.00;99.90
27797;DHT22;15177;50.844;4.412;2023-11-19T05:53:44;13.00;99.90
27797;DHT22;15177;50.844;4.412;2023-11-19T05:56:11;12.90;99.90
27797;DHT22;15177;50.844;4.412;2023-11-19T05:58:37;12.90;99.90
27797;DHT22;15177;50.844;4.412;2023-11-19T06:01:03;12.90;99.90
27797;DHT22;15177;50.844;4.412;2023-11-19T06:03:30;12.90;99.90
27797;DHT22;15177;50.844;4.412;2023-11-19T06:05:57;12.80;99.90
27797;DHT22;15177;50.844;4.412;2023-11-19T06:08:23;12.90;99.90
27797;DHT22;15177;50.844;4.412;2023-11-19T06:10:51;12.80;99.90
27797;DHT22;15177;50.844;4.412;2023-11-19T06:13:17;12.80;99.90
27797;DHT22;15177;50.844;4.412;2023-11-19T06:15:47;12.80;99.90
27797;DHT22;15177;50.844;4.412;2023-11-19T06:18:13;12.80;99.90
27797;DHT22;15177;50.844;4.412;2023-11-19T06:20:41;12.70;99.90
27797;DHT22;15177;50.844;4.412;2023-11-19T06:23:06;12.70;99.90
27797;DHT22;15177;50.844;4.412;2023-11-19T06:25:34;12.70;99.90
27797;DHT22;15177;50.844;4.412;2023-11-19T06:28:00;12.70;99.90
27797;DHT22;15177;50.844;4.412;2023-11-19T06:30:26;12.60;99.90
27797;DHT22;15177;50.844;4.412;2023-11-19T06:32:54;12.60;99.90
27797;DHT22;15177;50.844;4.412;2023-11-19T06:35:19;12.50;99.90
27797;DHT22;15177;50.844;4.412;2023-11-19T06:37:45;12.50;99.90
27797;DHT22;15177;50.844;4.412;2023-11-19T06:40:11;12.40;99.90
27797;DHT22;15177;50.844;4.412;2023-11-19T06:42:37;12.40;99.90
27797;DHT22;15177;50.844;4.412;2023-11-19T06:45:04;12.50;99.90
27797;DHT22;15177;50.844;4.412;2023-11-19T06:47:33;12.50;99.90
27797;DHT22;15177;50.844;4.412;2023-11-19T06:50:01;12.50;99.90
27797;DHT22;15177;50.844;4.412;2023-11-19T06:52:30;12.50;99.90
27797;DHT22;15177;50.844;4.412;2023-11-19T06:54:56;12.50;99.90
27797;DHT22;15177;50.844;4.412;2023-11-19T06:57:22;12.40;99.90
27797;DHT22;15177;50.844;4.412;2023-11-19T06:59:49;12.30;99.90
27797;DHT22;15177;50.844;4.412;2023-11-19T07:02:14;12.30;99.90
27797;DHT22;15177;50.844;4.412;2023-11-19T07:04:40;12.30;99.90
27797;DHT22;15177;50.844;4.412;2023-11-19T07:07:06;12.30;99.90
27797;DHT22;15177;50.844;4.412;2023-11-19T07:09:31;12.40;99.90
27797;DHT22;15177;50.844;4.412;2023-11-19T07:11:58;12.40;99.90
27797;DHT22;15177;50.844;4.412;2023-11-19T07:14:25;12.30;99.90
27797;DHT22;15177;50.844;4.412;2023-11-19T07:16:54;12.30;99.90
27797;DHT22;15177;50.844;4.412;2023-11-19T07:19:22;12.40;99.90
27797;DHT22;15177;50.844;4.412;2023-11-19T07:21:49;12.40;99.90
27797;DHT22;15177;50.844;4.412;2023-11-19T07:24:15;12.50;99.90
27797;DHT22;15177;50.844;4.412;2023-11-19T07:26:48;12.50;99.90
27797;DHT22;15177;50.844;4.412;2023-11-19T07:29:14;12.50;99.90
27797;DHT22;15177;50.844;4.412;2023-11-19T07:31:48;12.50;99.90
27797;DHT22;15177;50.844;4.412;2023-11-19T07:34:14;12.50;99.90
27797;DHT22;15177;50.844;4.412;2023-11-19T07:36:42;12.60;99.90
27797;DHT22;15177;50.844;4.412;2023-11-19T07:39:08;12.60;99.90
27797;DHT22;15177;50.844;4.412;2023-11-19T07:41:34;12.60;99.90
27797;DHT22;15177;50.844;4.412;2023-11-19T07:44:02;12.60;99.90
27797;DHT22;15177;50.844;4.412;2023-11-19T07:46:28;12.60;99.90
27797;DHT22;15177;50.844;4.412;2023-11-19T07:48:54;12.60;99.90
27797;DHT22;15177;50.844;4.412;2023-11-19T07:51:22;12.70;99.90
27797;DHT22;15177;50.844;4.412;2023-11-19T07:53:50;12.70;99.90
27797;DHT22;15177;50.844;4.412;2023-11-19T07:56:15;12.80;99.90
27797;DHT22;15177;50.844;4.412;2023-11-19T07:58:43;12.80;99.90
27797;DHT22;15177;50.844;4.412;2023-11-19T08:01:11;12.80;99.90
27797;DHT22;15177;50.844;4.412;2023-11-19T08:03:37;12.90;99.90
27797;DHT22;15177;50.844;4.412;2023-11-19T08:06:04;12.80;99.90
27797;DHT22;15177;50.844;4.412;2023-11-19T08:08:32;12.80;99.90
27797;DHT22;15177;50.844;4.412;2023-11-19T08:10:59;12.90;99.90
27797;DHT22;15177;50.844;4.412;2023-11-19T08:13:24;13.00;99.90
27797;DHT22;15177;50.844;4.412;2023-11-19T08:15:51;13.00;99.90
27797;DHT22;15177;50.844;4.412;2023-11-19T08:18:19;13.00;99.90
27797;DHT22;15177;50.844;4.412;2023-11-19T08:20:46;13.10;99.90
27797;DHT22;15177;50.844;4.412;2023-11-19T08:23:18;13.10;99.90
27797;DHT22;15177;50.844;4.412;2023-11-19T08:25:43;13.20;99.90
27797;DHT22;15177;50.844;4.412;2023-11-19T08:28:10;13.30;99.90
27797;DHT22;15177;50.844;4.412;2023-11-19T08:30:35;13.30;99.90
27797;DHT22;15177;50.844;4.412;2023-11-19T08:33:01;13.40;99.90
27797;DHT22;15177;50.844;4.412;2023-11-19T08:35:28;13.50;99.90
27797;DHT22;15177;50.844;4.412;2023-11-19T08:37:54;13.60;99.90
27797;DHT22;15177;50.844;4.412;2023-11-19T08:40:20;13.60;99.90
27797;DHT22;15177;50.844;4.412;2023-11-19T08:42:45;13.60;99.90
27797;DHT22;15177;50.844;4.412;2023-11-19T08:45:13;13.60;99.90
27797;DHT22;15177;50.844;4.412;2023-11-19T08:47:39;13.50;99.90
27797;DHT22;15177;50.844;4.412;2023-11-19T08:50:08;13.50;99.90
27797;DHT22;15177;50.844;4.412;2023-11-19T08:52:34;13.40;99.90
27797;DHT22;15177;50.844;4.412;2023-11-19T08:55:00;13.40;99.90
27797;DHT22;15177;50.844;4.412;2023-11-19T08:57:26;13.40;99.90
27797;DHT22;15177;50.844;4.412;2023-11-19T08:59:53;13.40;99.90
27797;DHT22;15177;50.844;4.412;2023-11-19T09:02:19;13.30;99.90
27797;DHT22;15177;50.844;4.412;2023-11-19T09:04:45;13.30;99.90
27797;DHT22;15177;50.844;4.412;2023-11-19T09:07:10;13.40;99.90
27797;DHT22;15177;50.844;4.412;2023-11-19T09:09:36;13.50;99.90
27797;DHT22;15177;50.844;4.412;2023-11-19T09:12:04;13.50;99.90
27797;DHT22;15177;50.844;4.412;2023-11-19T09:14:30;13.50;99.90
27797;DHT22;15177;50.844;4.412;2023-11-19T09:16:56;13.40;99.90
27797;DHT22;15177;50.844;4.412;2023-11-19T09:19:22;13.40;99.90
27797;DHT22;15177;50.844;4.412;2023-11-19T09:21:48;13.30;99.90
27797;DHT22;15177;50.844;4.412;2023-11-19T09:24:15;13.30;99.90
27797;DHT22;15177;50.844;4.412;2023-11-19T09:26:40;13.40;99.90
27797;DHT22;15177;50.844;4.412;2023-11-19T09:29:13;13.40;99.90
27797;DHT22;15177;50.844;4.412;2023-11-19T09:31:42;13.50;99.90
27797;DHT22;15177;50.844;4.412;2023-11-19T09:34:08;13.60;99.90
27797;DHT22;15177;50.844;4.412;2023-11-19T09:36:33;13.60;99.90
27797;DHT22;15177;50.844;4.412;2023-11-19T09:38:59;13.60;99.90
27797;DHT22;15177;50.844;4.412;2023-11-19T09:41:28;13.70;99.90
27797;DHT22;15177;50.844;4.412;2023-11-19T09:43:55;13.70;99.90
27797;DHT22;15177;50.844;4.412;2023-11-19T09:46:21;13.90;99.90
27797;DHT22;15177;50.844;4.412;2023-11-19T09:48:54;13.90;99.90
27797;DHT22;15177;50.844;4.412;2023-11-19T09:51:21;14.00;99.90
27797;DHT22;15177;50.844;4.412;2023-11-19T09:53:50;14.10;99.90
27797;DHT22;15177;50.844;4.412;2023-11-19T09:56:21;14.20;99.90
27797;DHT22;15177;50.844;4.412;2023-11-19T09:58:50;14.40;99.90
27797;DHT22;15177;50.844;4.412;2023-11-19T10:01:17;14.60;99.90
27797;DHT22;15177;50.844;4.412;2023-11-19T10:03:49;15.00;99.90
27797;DHT22;15177;50.844;4.412;2023-11-19T10:06:20;15.30;99.90
27797;DHT22;15177;50.844;4.412;2023-11-19T10:08:49;15.50;99.90
27797;DHT22;15177;50.844;4.412;2023-11-19T10:11:17;15.70;99.90
27797;DHT22;15177;50.844;4.412;2023-11-19T10:13:42;15.90;99.90
27797;DHT22;15177;50.844;4.412;2023-11-19T10:16:09;16.10;99.90
27797;DHT22;15177;50.844;4.412;2023-11-19T10:18:47;16.10;99.90
27797;DHT22;15177;50.844;4.412;2023-11-19T10:21:17;16.00;99.90
27797;DHT22;15177;50.844;4.412;2023-11-19T10:23:51;15.60;99.90
27797;DHT22;15177;50.844;4.412;2023-11-19T10:26:18;15.40;99.90
27797;DHT22;15177;50.844;4.412;2023-11-19T10:28:46;15.30;99.90
27797;DHT22;15177;50.844;4.412;2023-11-19T10:31:13;15.30;99.90
27797;DHT22;15177;50.844;4.412;2023-11-19T10:33:44;15.30;99.90
27797;DHT22;15177;50.844;4.412;2023-11-19T10:36:11;15.30;99.90
27797;DHT22;15177;50.844;4.412;2023-11-19T10:38:40;15.20;99.90
27797;DHT22;15177;50.844;4.412;2023-11-19T10:41:09;15.10;99.90
27797;DHT22;15177;50.844;4.412;2023-11-19T10:43:44;15.10;99.90
27797;DHT22;15177;50.844;4.412;2023-11-19T10:46:15;15.00;99.90
27797;DHT22;15177;50.844;4.412;2023-11-19T10:48:46;14.90;99.90
27797;DHT22;15177;50.844;4.412;2023-11-19T10:51:13;14.90;99.90
27797;DHT22;15177;50.844;4.412;2023-11-19T10:53:49;14.80;99.90
27797;DHT22;15177;50.844;4.412;2023-11-19T10:56:19;14.70;99.90
27797;DHT22;15177;50.844;4.412;2023-11-19T10:58:50;14.80;99.90
27797;DHT22;15177;50.844;4.412;2023-11-19T11:01:20;14.70;99.90
27797;DHT22;15177;50.844;4.412;2023-11-19T11:03:53;14.60;99.90
27797;DHT22;15177;50.844;4.412;2023-11-19T11:06:21;14.50;99.90
27797;DHT22;15177;50.844;4.412;2023-11-19T11:08:53;14.40;99.90
27797;DHT22;15177;50.844;4.412;2023-11-19T11:11:19;14.30;99.90
27797;DHT22;15177;50.844;4.412;2023-11-19T11:13:47;14.30;99.90
27797;DHT22;15177;50.844;4.412;2023-11-19T11:16:15;14.40;99.90
27797;DHT22;15177;50.844;4.412;2023-11-19T11:18:45;14.40;99.90
27797;DHT22;15177;50.844;4.412;2023-11-19T11:21:16;14.40;99.90
27797;DHT22;15177;50.844;4.412;2023-11-19T11:29:05;14.20;99.90
27797;DHT22;15177;50.844;4.412;2023-11-19T11:31:59;14.20;99.90
27797;DHT22;15177;50.844;4.412;2023-11-19T11:39:52;14.40;99.90
27797;DHT22;15177;50.844;4.412;2023-11-19T11:50:20;14.20;99.90
27797;DHT22;15177;50.844;4.412;2023-11-19T11:57:50;14.10;99.90
27797;DHT22;15177;50.844;4.412;2023-11-19T12:00:41;14.20;99.90
27797;DHT22;15177;50.844;4.412;2023-11-19T12:03:08;14.40;99.90
27797;DHT22;15177;50.844;4.412;2023-11-19T12:05:44;14.50;99.90
27797;DHT22;15177;50.844;4.412;2023-11-19T12:08:14;14.60;99.90
27797;DHT22;15177;50.844;4.412;2023-11-19T12:10:51;14.60;99.90
27797;DHT22;15177;50.844;4.412;2023-11-19T12:13:20;14.60;99.90
27797;DHT22;15177;50.844;4.412;2023-11-19T12:18:27;14.60;99.90
27797;DHT22;15177;50.844;4.412;2023-11-19T12:20:58;14.40;99.90
27797;DHT22;15177;50.844;4.412;2023-11-19T12:23:29;14.30;99.90
27797;DHT22;15177;50.844;4.412;2023-11-19T12:25:55;14.20;99.90
27797;DHT22;15177;50.844;4.412;2023-11-19T12:28:23;14.20;99.90
27797;DHT22;15177;50.844;4.412;2023-11-19T12:30:53;14.30;99.90
27797;DHT22;15177;50.844;4.412;2023-11-19T12:33:19;14.30;99.90
27797;DHT22;15177;50.844;4.412;2023-11-19T12:35:48;14.20;99.90
27797;DHT22;15177;50.844;4.412;2023-11-19T12:38:24;14.20;99.90
27797;DHT22;15177;50.844;4.412;2023-11-19T12:41:03;14.10;99.90
27797;DHT22;15177;50.844;4.412;2023-11-19T12:43:29;14.10;99.90
27797;DHT22;15177;50.844;4.412;2023-11-19T12:45:55;14.00;99.90
27797;DHT22;15177;50.844;4.412;2023-11-19T12:48:21;13.90;99.90
27797;DHT22;15177;50.844;4.412;2023-11-19T12:50:57;13.90;99.90
27797;DHT22;15177;50.844;4.412;2023-11-19T12:53:24;14.00;99.90
27797;DHT22;15177;50.844;4.412;2023-11-19T12:55:53;14.10;99.90
27797;DHT22;15177;50.844;4.412;2023-11-19T12:58:33;14.10;99.90
27797;DHT22;15177;50.844;4.412;2023-11-19T13:01:06;14.10;99.90
27797;DHT22;15177;50.844;4.412;2023-11-19T13:03:34;14.10;99.90
27797;DHT22;15177;50.844;4.412;2023-11-19T13:06:08;14.20;99.90
27797;DHT22;15177;50.844;4.412;2023-11-19T13:08:54;14.20;99.90
27797;DHT22;15177;50.844;4.412;2023-11-19T13:11:35;14.20;99.90
27797;DHT22;15177;50.844;4.412;2023-11-19T13:14:07;14.40;99.90
27797;DHT22;15177;50.844;4.412;2023-11-19T13:16:38;14.40;99.90
27797;DHT22;15177;50.844;4.412;2023-11-19T13:19:06;14.40;99.90
27797;DHT22;15177;50.844;4.412;2023-11-19T13:21:32;14.40;99.90
27797;DHT22;15177;50.844;4.412;2023-11-19T13:24:00;14.40;99.90
27797;DHT22;15177;50.844;4.412;2023-11-19T13:26:31;14.30;99.90
27797;DHT22;15177;50.844;4.412;2023-11-19T13:28:56;14.30;99.90
27797;DHT22;15177;50.844;4.412;2023-11-19T13:31:25;14.20;99.90
27797;DHT22;15177;50.844;4.412;2023-11-19T13:33:55;14.20;99.90
27797;DHT22;15177;50.844;4.412;2023-11-19T13:36:24;14.10;99.90
27797;DHT22;15177;50.844;4.412;2023-11-19T13:38:55;14.20;99.90
27797;DHT22;15177;50.844;4.412;2023-11-19T13:41:25;14.10;99.90
27797;DHT22;15177;50.844;4.412;2023-11-19T13:43:51;14.10;99.90
27797;DHT22;15177;50.844;4.412;2023-11-19T13:46:17;14.00;99.90
27797;DHT22;15177;50.844;4.412;2023-11-19T13:48:45;14.00;99.90
27797;DHT22;15177;50.844;4.412;2023-11-19T13:51:11;13.90;99.90
27797;DHT22;15177;50.844;4.412;2023-11-19T13:53:39;13.80;99.90
27797;DHT22;15177;50.844;4.412;2023-11-19T13:56:05;13.90;99.90
27797;DHT22;15177;50.844;4.412;2023-11-19T13:58:35;13.80;99.90
27797;DHT22;15177;50.844;4.412;2023-11-19T14:01:00;13.80;99.90
27797;DHT22;15177;50.844;4.412;2023-11-19T14:03:27;13.80;99.90
27797;DHT22;15177;50.844;4.412;2023-11-19T14:05:52;13.80;99.90
27797;DHT22;15177;50.844;4.412;2023-11-19T14:08:22;13.80;99.90
27797;DHT22;15177;50.844;4.412;2023-11-19T14:10:48;13.80;99.90
27797;DHT22;15177;50.844;4.412;2023-11-19T14:13:13;13.90;99.90
27797;DHT22;15177;50.844;4.412;2023-11-19T14:15:42;14.00;99.90
27797;DHT22;15177;50.844;4.412;2023-11-19T14:18:11;14.00;99.90
27797;DHT22;15177;50.844;4.412;2023-11-19T14:20:36;13.90;99.90
27797;DHT22;15177;50.844;4.412;2023-11-19T14:23:04;13.90;99.90
27797;DHT22;15177;50.844;4.412;2023-11-19T14:25:31;13.90;99.90
27797;DHT22;15177;50.844;4.412;2023-11-19T14:28:02;13.90;99.90
27797;DHT22;15177;50.844;4.412;2023-11-19T14:30:27;13.90;99.90
27797;DHT22;15177;50.844;4.412;2023-11-19T14:32:56;13.90;99.90
27797;DHT22;15177;50.844;4.412;2023-11-19T14:35:21;13.80;99.90
27797;DHT22;15177;50.844;4.412;2023-11-19T14:37:50;13.70;99.90
27797;DHT22;15177;50.844;4.412;2023-11-19T14:40:15;13.60;99.90
27797;DHT22;15177;50.844;4.412;2023-11-19T14:42:41;13.50;99.90
27797;DHT22;15177;50.844;4.412;2023-11-19T14:45:08;13.40;99.90
27797;DHT22;15177;50.844;4.412;2023-11-19T14:47:37;13.50;99.90
27797;DHT22;15177;50.844;4.412;2023-11-19T14:50:03;13.50;99.90
27797;DHT22;15177;50.844;4.412;2023-11-19T14:52:28;13.50;99.90
27797;DHT22;15177;50.844;4.412;2023-11-19T14:54:59;13.50;99.90
27797;DHT22;15177;50.844;4.412;2023-11-19T14:57:24;13.50;99.90
27797;DHT22;15177;50.844;4.412;2023-11-19T14:59:52;13.50;99.90
27797;DHT22;15177;50.844;4.412;2023-11-19T15:02:20;13.50;99.90
27797;DHT22;15177;50.844;4.412;2023-11-19T15:04:48;13.50;99.90
27797;DHT22;15177;50.844;4.412;2023-11-19T15:07:13;13.50;99.90
27797;DHT22;15177;50.844;4.412;2023-11-19T15:09:42;13.50;99.90
27797;DHT22;15177;50.844;4.412;2023-11-19T15:12:11;13.60;99.90
27797;DHT22;15177;50.844;4.412;2023-11-19T15:14:36;13.60;99.90
27797;DHT22;15177;50.844;4.412;2023-11-19T15:17:03;13.50;99.90
27797;DHT22;15177;50.844;4.412;2023-11-19T15:19:28;13.50;99.90
27797;DHT22;15177;50.844;4.412;2023-11-19T15:21:59;13.50;99.90
27797;DHT22;15177;50.844;4.412;2023-11-19T15:24:24;13.50;99.90
27797;DHT22;15177;50.844;4.412;2023-11-19T15:26:50;13.50;99.90
27797;DHT22;15177;50.844;4.412;2023-11-19T15:29:19;13.50;99.90
27797;DHT22;15177;50.844;4.412;2023-11-19T15:31:46;13.50;99.90
27797;DHT22;15177;50.844;4.412;2023-11-19T15:34:15;13.60;99.90
27797;DHT22;15177;50.844;4.412;2023-11-19T15:36:40;13.60;99.90
27797;DHT22;15177;50.844;4.412;2023-11-19T15:39:06;13.60;99.90
27797;DHT22;15177;50.844;4.412;2023-11-19T15:41:34;13.60;99.90
27797;DHT22;15177;50.844;4.412;2023-11-19T15:44:03;13.50;99.90
27797;DHT22;15177;50.844;4.412;2023-11-19T15:46:29;13.60;99.90
27797;DHT22;15177;50.844;4.412;2023-11-19T15:48:55;13.60;99.90
27797;DHT22;15177;50.844;4.412;2023-11-19T15:51:20;13.50;99.90
27797;DHT22;15177;50.844;4.412;2023-11-19T15:53:48;13.50;99.90
27797;DHT22;15177;50.844;4.412;2023-11-19T15:56:14;13.50;99.90
27797;DHT22;15177;50.844;4.412;2023-11-19T15:58:40;13.50;99.90
27797;DHT22;15177;50.844;4.412;2023-11-19T16:01:06;13.60;99.90